Terminal Aerodrome Forecast
Issued by NWS

Home | Current Version | Previous Version | Text Only | Print | Product List | Glossary On
Versions: 1 2 3 4 5 6 7 8 9 10 11 12 13 14 15 16 17 18 19 20 21 22 23 24 25 26 27 28 29 30 31 32
000
FTUS43 KDLH 201700
TAFHIB
TAF
KHIB 201728Z 2018/2118 30011KT P6SM SCT023
      TEMPO 2019/2022 BKN025
     FM202300 28008KT P6SM -TSRA BKN035CB
     FM210200 32005KT P6SM -RA BKN025 OVC040
     FM210800 33006KT 6SM BR OVC010
      TEMPO 2109/2113 5SM BR OVC006
     FM211700 33007KT P6SM BKN015=

USA.gov is the U.S. government's official web portal to all federal, state and local government web resources and services.